sensor_id;sensor_type;location;lat;lon;timestamp;pressure;altitude;pressure_sealevel;temperature;humidity
7966;BME280;4028;43.272;26.932;2023-02-27T00:01:19;98573.78;;;15.23;100.00
7966;BME280;4028;43.272;26.932;2023-02-27T00:03:45;98586.63;;;15.19;100.00
7966;BME280;4028;43.272;26.932;2023-02-27T00:06:10;98551.56;;;15.16;100.00
7966;BME280;4028;43.272;26.932;2023-02-27T00:08:36;98556.25;;;15.35;100.00
7966;BME280;4028;43.272;26.932;2023-02-27T00:11:02;98558.38;;;15.40;100.00
7966;BME280;4028;43.272;26.932;2023-02-27T00:13:27;98550.31;;;15.33;100.00
7966;BME280;4028;43.272;26.932;2023-02-27T00:15:53;98548.97;;;15.44;100.00
7966;BME280;4028;43.272;26.932;2023-02-27T00:18:20;98542.31;;;15.54;100.00
7966;BME280;4028;43.272;26.932;2023-02-27T00:20:46;98517.94;;;15.57;100.00
7966;BME280;4028;43.272;26.932;2023-02-27T00:23:13;98551.59;;;15.58;100.00
7966;BME280;4028;43.272;26.932;2023-02-27T00:25:40;98556.84;;;15.30;100.00
7966;BME280;4028;43.272;26.932;2023-02-27T00:28:06;98584.13;;;15.32;100.00
7966;BME280;4028;43.272;26.932;2023-02-27T00:30:31;98582.38;;;15.25;100.00
7966;BME280;4028;43.272;26.932;2023-02-27T00:32:57;98585.97;;;15.32;100.00
7966;BME280;4028;43.272;26.932;2023-02-27T00:35:23;98571.44;;;15.34;100.00
7966;BME280;4028;43.272;26.932;2023-02-27T00:37:48;98562.06;;;15.39;100.00
7966;BME280;4028;43.272;26.932;2023-02-27T00:40:14;98535.97;;;15.34;100.00
7966;BME280;4028;43.272;26.932;2023-02-27T00:42:40;98567.59;;;15.37;100.00
7966;BME280;4028;43.272;26.932;2023-02-27T00:45:06;98615.66;;;15.29;100.00
7966;BME280;4028;43.272;26.932;2023-02-27T00:47:33;98625.13;;;15.31;100.00
7966;BME280;4028;43.272;26.932;2023-02-27T00:49:58;98641.50;;;15.28;100.00
7966;BME280;4028;43.272;26.932;2023-02-27T00:52:24;98650.59;;;15.04;100.00
7966;BME280;4028;43.272;26.932;2023-02-27T00:54:50;98653.19;;;14.98;100.00
7966;BME280;4028;43.272;26.932;2023-02-27T00:57:15;98665.47;;;14.99;100.00
7966;BME280;4028;43.272;26.932;2023-02-27T00:59:42;98650.78;;;15.03;100.00
7966;BME280;4028;43.272;26.932;2023-02-27T01:02:07;98643.63;;;15.03;100.00
7966;BME280;4028;43.272;26.932;2023-02-27T01:04:33;98623.25;;;14.96;100.00
7966;BME280;4028;43.272;26.932;2023-02-27T01:06:58;98645.44;;;15.18;100.00
7966;BME280;4028;43.272;26.932;2023-02-27T01:09:24;98647.56;;;15.22;100.00
7966;BME280;4028;43.272;26.932;2023-02-27T01:11:50;98650.03;;;15.24;100.00
7966;BME280;4028;43.272;26.932;2023-02-27T01:14:17;98653.16;;;15.27;100.00
7966;BME280;4028;43.272;26.932;2023-02-27T01:16:42;98648.03;;;15.26;100.00
7966;BME280;4028;43.272;26.932;2023-02-27T01:19:08;98641.88;;;15.25;100.00
7966;BME280;4028;43.272;26.932;2023-02-27T01:21:33;98648.09;;;15.32;100.00
7966;BME280;4028;43.272;26.932;2023-02-27T01:23:59;98659.06;;;15.23;100.00
7966;BME280;4028;43.272;26.932;2023-02-27T01:26:24;98654.00;;;15.13;100.00
7966;BME280;4028;43.272;26.932;2023-02-27T01:28:50;98650.25;;;15.07;100.00
7966;BME280;4028;43.272;26.932;2023-02-27T01:31:15;98654.94;;;15.05;100.00
7966;BME280;4028;43.272;26.932;2023-02-27T01:33:41;98644.34;;;14.97;100.00
7966;BME280;4028;43.272;26.932;2023-02-27T01:36:07;98646.94;;;14.91;100.00
7966;BME280;4028;43.272;26.932;2023-02-27T01:38:33;98635.63;;;14.74;100.00
7966;BME280;4028;43.272;26.932;2023-02-27T01:40:59;98617.72;;;14.68;100.00
7966;BME280;4028;43.272;26.932;2023-02-27T01:43:25;98615.25;;;14.66;100.00
7966;BME280;4028;43.272;26.932;2023-02-27T01:45:50;98627.34;;;14.69;100.00
7966;BME280;4028;43.272;26.932;2023-02-27T01:51:00;98619.53;;;14.52;100.00
7966;BME280;4028;43.272;26.932;2023-02-27T01:53:27;98639.88;;;14.45;100.00
7966;BME280;4028;43.272;26.932;2023-02-27T01:55:57;98632.91;;;14.44;100.00
7966;BME280;4028;43.272;26.932;2023-02-27T01:58:25;98630.69;;;14.33;100.00
7966;BME280;4028;43.272;26.932;2023-02-27T02:00:51;98633.69;;;14.30;100.00
7966;BME280;4028;43.272;26.932;2023-02-27T02:03:36;98643.72;;;14.28;100.00
7966;BME280;4028;43.272;26.932;2023-02-27T02:06:05;98631.13;;;14.37;100.00
7966;BME280;4028;43.272;26.932;2023-02-27T02:08:34;98631.88;;;14.30;100.00
7966;BME280;4028;43.272;26.932;2023-02-27T02:11:02;98630.50;;;14.35;100.00
7966;BME280;4028;43.272;26.932;2023-02-27T02:13:28;98630.94;;;14.38;100.00
7966;BME280;4028;43.272;26.932;2023-02-27T02:16:20;98634.09;;;14.42;100.00
7966;BME280;4028;43.272;26.932;2023-02-27T02:19:13;98626.06;;;14.27;100.00
7966;BME280;4028;43.272;26.932;2023-02-27T02:52:28;98624.31;;;14.19;100.00
7966;BME280;4028;43.272;26.932;2023-02-27T02:58:31;98618.59;;;14.08;100.00
7966;BME280;4028;43.272;26.932;2023-02-27T03:01:05;98634.78;;;14.21;100.00
7966;BME280;4028;43.272;26.932;2023-02-27T03:03:39;98640.47;;;14.18;100.00
7966;BME280;4028;43.272;26.932;2023-02-27T03:06:18;98651.41;;;14.23;100.00
7966;BME280;4028;43.272;26.932;2023-02-27T03:08:52;98653.06;;;14.24;100.00
7966;BME280;4028;43.272;26.932;2023-02-27T03:11:19;98673.13;;;14.26;100.00
7966;BME280;4028;43.272;26.932;2023-02-27T03:13:53;98675.63;;;14.05;100.00
7966;BME280;4028;43.272;26.932;2023-02-27T03:18:57;98680.00;;;14.21;100.00
7966;BME280;4028;43.272;26.932;2023-02-27T03:21:55;98678.00;;;14.23;100.00
7966;BME280;4028;43.272;26.932;2023-02-27T03:24:33;98668.28;;;14.30;100.00
7966;BME280;4028;43.272;26.932;2023-02-27T03:27:01;98672.59;;;14.31;100.00
7966;BME280;4028;43.272;26.932;2023-02-27T03:29:41;98672.31;;;14.26;100.00
7966;BME280;4028;43.272;26.932;2023-02-27T03:32:35;98657.06;;;14.20;100.00
7966;BME280;4028;43.272;26.932;2023-02-27T03:35:03;98659.19;;;14.24;100.00
7966;BME280;4028;43.272;26.932;2023-02-27T03:38:05;98663.31;;;14.27;100.00
7966;BME280;4028;43.272;26.932;2023-02-27T03:43:49;98644.94;;;14.17;100.00
7966;BME280;4028;43.272;26.932;2023-02-27T03:46:18;98644.53;;;14.05;100.00
7966;BME280;4028;43.272;26.932;2023-02-27T03:48:45;98645.56;;;14.04;100.00
7966;BME280;4028;43.272;26.932;2023-02-27T03:51:13;98644.84;;;14.11;100.00
7966;BME280;4028;43.272;26.932;2023-02-27T03:56:19;98639.59;;;14.02;100.00
7966;BME280;4028;43.272;26.932;2023-02-27T03:58:46;98624.09;;;14.06;100.00
7966;BME280;4028;43.272;26.932;2023-02-27T04:01:12;98633.06;;;14.05;100.00
7966;BME280;4028;43.272;26.932;2023-02-27T04:03:44;98635.34;;;13.93;100.00
7966;BME280;4028;43.272;26.932;2023-02-27T04:06:13;98628.19;;;13.94;100.00
7966;BME280;4028;43.272;26.932;2023-02-27T04:09:52;98633.53;;;13.86;100.00
7966;BME280;4028;43.272;26.932;2023-02-27T04:14:50;98640.06;;;13.83;100.00
7966;BME280;4028;43.272;26.932;2023-02-27T04:17:28;98640.88;;;13.84;100.00
7966;BME280;4028;43.272;26.932;2023-02-27T04:25:34;98631.25;;;13.83;100.00
7966;BME280;4028;43.272;26.932;2023-02-27T04:30:51;98636.28;;;13.77;100.00
7966;BME280;4028;43.272;26.932;2023-02-27T04:36:15;98651.44;;;13.69;100.00
7966;BME280;4028;43.272;26.932;2023-02-27T04:43:40;98676.69;;;13.73;100.00
7966;BME280;4028;43.272;26.932;2023-02-27T04:46:09;98672.22;;;13.65;100.00
7966;BME280;4028;43.272;26.932;2023-02-27T04:49:07;98668.53;;;13.74;100.00
7966;BME280;4028;43.272;26.932;2023-02-27T04:54:34;98672.69;;;13.77;100.00
7966;BME280;4028;43.272;26.932;2023-02-27T04:57:06;98639.47;;;13.73;100.00
7966;BME280;4028;43.272;26.932;2023-02-27T04:59:48;98661.84;;;13.78;100.00
7966;BME280;4028;43.272;26.932;2023-02-27T05:02:19;98671.75;;;13.93;100.00
7966;BME280;4028;43.272;26.932;2023-02-27T05:04:54;98690.06;;;13.88;100.00
7966;BME280;4028;43.272;26.932;2023-02-27T05:07:27;98701.38;;;13.82;100.00
7966;BME280;4028;43.272;26.932;2023-02-27T05:10:03;98710.53;;;13.79;100.00
7966;BME280;4028;43.272;26.932;2023-02-27T05:12:40;98717.34;;;13.82;100.00
7966;BME280;4028;43.272;26.932;2023-02-27T05:15:12;98707.47;;;13.67;100.00
7966;BME280;4028;43.272;26.932;2023-02-27T05:20:10;98693.97;;;13.69;100.00
7966;BME280;4028;43.272;26.932;2023-02-27T05:22:49;98696.59;;;13.77;100.00
7966;BME280;4028;43.272;26.932;2023-02-27T05:27:54;98707.09;;;13.70;100.00
7966;BME280;4028;43.272;26.932;2023-02-27T05:33:13;98717.22;;;13.75;100.00
7966;BME280;4028;43.272;26.932;2023-02-27T05:38:39;98739.47;;;13.82;100.00
7966;BME280;4028;43.272;26.932;2023-02-27T05:41:24;98741.75;;;13.85;100.00
7966;BME280;4028;43.272;26.932;2023-02-27T05:44:11;98733.53;;;14.03;100.00
7966;BME280;4028;43.272;26.932;2023-02-27T05:46:47;98741.91;;;14.15;100.00
7966;BME280;4028;43.272;26.932;2023-02-27T05:49:22;98741.63;;;14.10;100.00
7966;BME280;4028;43.272;26.932;2023-02-27T05:51:50;98743.75;;;14.14;100.00
7966;BME280;4028;43.272;26.932;2023-02-27T05:54:41;98742.31;;;14.26;100.00
7966;BME280;4028;43.272;26.932;2023-02-27T05:57:14;98750.25;;;14.35;100.00
7966;BME280;4028;43.272;26.932;2023-02-27T06:00:03;98751.44;;;14.32;100.00
7966;BME280;4028;43.272;26.932;2023-02-27T06:02:30;98748.78;;;14.32;100.00
7966;BME280;4028;43.272;26.932;2023-02-27T06:04:56;98748.72;;;14.40;100.00
7966;BME280;4028;43.272;26.932;2023-02-27T06:07:22;98754.34;;;14.45;100.00
7966;BME280;4028;43.272;26.932;2023-02-27T06:09:48;98754.16;;;14.47;100.00
7966;BME280;4028;43.272;26.932;2023-02-27T06:12:14;98761.28;;;14.54;100.00
7966;BME280;4028;43.272;26.932;2023-02-27T06:14:40;98754.06;;;14.63;100.00
7966;BME280;4028;43.272;26.932;2023-02-27T06:17:05;98759.84;;;14.67;100.00
7966;BME280;4028;43.272;26.932;2023-02-27T06:19:30;98758.50;;;14.71;100.00
7966;BME280;4028;43.272;26.932;2023-02-27T06:21:56;98769.19;;;14.86;100.00
7966;BME280;4028;43.272;26.932;2023-02-27T06:24:21;98767.91;;;14.96;100.00
7966;BME280;4028;43.272;26.932;2023-02-27T06:26:47;98793.47;;;15.05;100.00
7966;BME280;4028;43.272;26.932;2023-02-27T06:29:12;98823.38;;;14.93;100.00
7966;BME280;4028;43.272;26.932;2023-02-27T06:31:38;98829.00;;;14.98;100.00
7966;BME280;4028;43.272;26.932;2023-02-27T06:34:04;98814.50;;;15.00;100.00
7966;BME280;4028;43.272;26.932;2023-02-27T06:36:29;98818.38;;;15.13;100.00
7966;BME280;4028;43.272;26.932;2023-02-27T06:38:55;98821.56;;;15.31;100.00
7966;BME280;4028;43.272;26.932;2023-02-27T06:41:20;98829.72;;;15.44;100.00
7966;BME280;4028;43.272;26.932;2023-02-27T06:43:46;98835.03;;;15.67;100.00
7966;BME280;4028;43.272;26.932;2023-02-27T06:46:11;98835.19;;;15.95;100.00
7966;BME280;4028;43.272;26.932;2023-02-27T06:48:37;98907.88;;;16.12;100.00
7966;BME280;4028;43.272;26.932;2023-02-27T06:51:02;98928.41;;;15.82;97.13
7966;BME280;4028;43.272;26.932;2023-02-27T06:53:28;98946.13;;;14.91;100.00
7966;BME280;4028;43.272;26.932;2023-02-27T06:55:53;98945.66;;;14.01;100.00
7966;BME280;4028;43.272;26.932;2023-02-27T06:58:19;98957.47;;;13.98;100.00
7966;BME280;4028;43.272;26.932;2023-02-27T07:00:45;98952.31;;;14.05;100.00
7966;BME280;4028;43.272;26.932;2023-02-27T07:03:11;98962.63;;;14.08;100.00
7966;BME280;4028;43.272;26.932;2023-02-27T07:05:37;98963.59;;;14.07;99.96
7966;BME280;4028;43.272;26.932;2023-02-27T07:08:04;98970.63;;;14.55;92.38
7966;BME280;4028;43.272;26.932;2023-02-27T07:10:30;98957.22;;;14.24;89.97
7966;BME280;4028;43.272;26.932;2023-02-27T07:12:55;98962.19;;;13.56;98.21
7966;BME280;4028;43.272;26.932;2023-02-27T07:15:21;98961.31;;;12.90;100.00
7966;BME280;4028;43.272;26.932;2023-02-27T07:17:47;98943.72;;;12.97;100.00
7966;BME280;4028;43.272;26.932;2023-02-27T07:20:12;98972.41;;;12.93;100.00
7966;BME280;4028;43.272;26.932;2023-02-27T07:22:39;98959.00;;;13.19;100.00
7966;BME280;4028;43.272;26.932;2023-02-27T07:25:06;98982.75;;;13.13;100.00
7966;BME280;4028;43.272;26.932;2023-02-27T07:27:32;98971.16;;;13.22;100.00
7966;BME280;4028;43.272;26.932;2023-02-27T07:29:57;98981.28;;;13.35;100.00
7966;BME280;4028;43.272;26.932;2023-02-27T07:32:23;98972.66;;;13.73;97.33
7966;BME280;4028;43.272;26.932;2023-02-27T07:34:48;98978.59;;;13.92;96.33
7966;BME280;4028;43.272;26.932;2023-02-27T07:37:14;98963.00;;;14.36;92.11
7966;BME280;4028;43.272;26.932;2023-02-27T07:39:40;98981.28;;;14.87;86.39
7966;BME280;4028;43.272;26.932;2023-02-27T07:42:05;99001.44;;;14.81;85.00
7966;BME280;4028;43.272;26.932;2023-02-27T07:44:31;99004.88;;;13.78;92.82
7966;BME280;4028;43.272;26.932;2023-02-27T07:46:57;99014.03;;;13.51;97.27
7966;BME280;4028;43.272;26.932;2023-02-27T07:49:22;99020.75;;;13.13;100.00
7966;BME280;4028;43.272;26.932;2023-02-27T07:51:48;99028.53;;;12.98;100.00
7966;BME280;4028;43.272;26.932;2023-02-27T07:54:13;99023.66;;;12.43;100.00
7966;BME280;4028;43.272;26.932;2023-02-27T07:56:39;99019.47;;;12.33;100.00
7966;BME280;4028;43.272;26.932;2023-02-27T07:59:04;99021.63;;;12.29;100.00
7966;BME280;4028;43.272;26.932;2023-02-27T08:01:30;99004.19;;;12.01;100.00
7966;BME280;4028;43.272;26.932;2023-02-27T08:03:55;99002.53;;;12.00;100.00
7966;BME280;4028;43.272;26.932;2023-02-27T08:06:22;99010.88;;;12.05;100.00
7966;BME280;4028;43.272;26.932;2023-02-27T08:08:48;99006.91;;;12.43;100.00
7966;BME280;4028;43.272;26.932;2023-02-27T08:11:13;99009.16;;;12.64;100.00
7966;BME280;4028;43.272;26.932;2023-02-27T08:13:39;99014.25;;;12.99;100.00
7966;BME280;4028;43.272;26.932;2023-02-27T08:16:06;99017.84;;;13.49;100.00
7966;BME280;4028;43.272;26.932;2023-02-27T08:18:32;99020.16;;;13.44;100.00
7966;BME280;4028;43.272;26.932;2023-02-27T08:20:57;99022.00;;;13.43;100.00
7966;BME280;4028;43.272;26.932;2023-02-27T08:23:23;99018.44;;;13.18;100.00
7966;BME280;4028;43.272;26.932;2023-02-27T08:25:48;99045.22;;;13.25;100.00
7966;BME280;4028;43.272;26.932;2023-02-27T08:28:14;99057.47;;;13.18;100.00
7966;BME280;4028;43.272;26.932;2023-02-27T08:30:39;99068.97;;;12.84;100.00
7966;BME280;4028;43.272;26.932;2023-02-27T08:33:05;99072.44;;;12.77;100.00
7966;BME280;4028;43.272;26.932;2023-02-27T08:35:30;99086.59;;;12.85;100.00
7966;BME280;4028;43.272;26.932;2023-02-27T08:37:56;99094.84;;;12.48;100.00
7966;BME280;4028;43.272;26.932;2023-02-27T08:40:21;99101.13;;;12.39;100.00
7966;BME280;4028;43.272;26.932;2023-02-27T08:42:47;99107.38;;;12.38;100.00
7966;BME280;4028;43.272;26.932;2023-02-27T08:45:12;99113.59;;;12.03;100.00
7966;BME280;4028;43.272;26.932;2023-02-27T08:47:38;99118.00;;;12.38;100.00
7966;BME280;4028;43.272;26.932;2023-02-27T08:50:04;99107.63;;;12.79;100.00
7966;BME280;4028;43.272;26.932;2023-02-27T08:52:30;99119.00;;;12.97;100.00
7966;BME280;4028;43.272;26.932;2023-02-27T08:54:56;99116.16;;;12.90;100.00
7966;BME280;4028;43.272;26.932;2023-02-27T08:57:22;99126.78;;;12.98;100.00
7966;BME280;4028;43.272;26.932;2023-02-27T08:59:47;99128.75;;;13.22;100.00
7966;BME280;4028;43.272;26.932;2023-02-27T09:02:13;99130.91;;;12.93;100.00
7966;BME280;4028;43.272;26.932;2023-02-27T09:04:38;99140.44;;;12.69;100.00
7966;BME280;4028;43.272;26.932;2023-02-27T09:07:04;99141.22;;;12.62;100.00
7966;BME280;4028;43.272;26.932;2023-02-27T09:09:29;99140.69;;;12.58;100.00
7966;BME280;4028;43.272;26.932;2023-02-27T09:11:55;99157.31;;;12.60;100.00
7966;BME280;4028;43.272;26.932;2023-02-27T09:14:21;99155.00;;;12.39;100.00
7966;BME280;4028;43.272;26.932;2023-02-27T09:16:48;99166.81;;;12.45;100.00
7966;BME280;4028;43.272;26.932;2023-02-27T09:19:14;99170.81;;;12.05;100.00
7966;BME280;4028;43.272;26.932;2023-02-27T09:21:40;99169.19;;;12.30;100.00
7966;BME280;4028;43.272;26.932;2023-02-27T09:24:06;99158.75;;;12.55;100.00
7966;BME280;4028;43.272;26.932;2023-02-27T09:26:31;99166.63;;;12.98;100.00
7966;BME280;4028;43.272;26.932;2023-02-27T09:28:57;99170.44;;;13.22;100.00
7966;BME280;4028;43.272;26.932;2023-02-27T09:31:23;99172.22;;;13.64;100.00
7966;BME280;4028;43.272;26.932;2023-02-27T09:33:48;99173.03;;;13.56;100.00
7966;BME280;4028;43.272;26.932;2023-02-27T09:36:15;99172.53;;;13.52;100.00
7966;BME280;4028;43.272;26.932;2023-02-27T09:38:40;99179.09;;;13.32;100.00
7966;BME280;4028;43.272;26.932;2023-02-27T09:41:15;99177.91;;;13.77;100.00
7966;BME280;4028;43.272;26.932;2023-02-27T09:43:47;99191.75;;;14.46;100.00
7966;BME280;4028;43.272;26.932;2023-02-27T09:46:18;99196.03;;;14.88;98.58
7966;BME280;4028;43.272;26.932;2023-02-27T09:48:56;99187.41;;;15.33;94.53
7966;BME280;4028;43.272;26.932;2023-02-27T09:51:23;99194.94;;;15.92;85.44
7966;BME280;4028;43.272;26.932;2023-02-27T09:53:51;99190.97;;;16.10;83.51
7966;BME280;4028;43.272;26.932;2023-02-27T09:56:26;99203.28;;;16.80;77.49
7966;BME280;4028;43.272;26.932;2023-02-27T10:01:53;99216.47;;;17.41;71.17
7966;BME280;4028;43.272;26.932;2023-02-27T10:04:27;99210.09;;;17.27;71.26
7966;BME280;4028;43.272;26.932;2023-02-27T10:15:24;99236.72;;;16.91;72.74
7966;BME280;4028;43.272;26.932;2023-02-27T10:17:53;99224.66;;;17.54;69.83
7966;BME280;4028;43.272;26.932;2023-02-27T10:20:30;99240.25;;;18.38;64.10
7966;BME280;4028;43.272;26.932;2023-02-27T10:22:59;99231.59;;;18.85;61.12
7966;BME280;4028;43.272;26.932;2023-02-27T10:25:26;99237.53;;;19.43;57.86
7966;BME280;4028;43.272;26.932;2023-02-27T10:27:55;99241.81;;;19.38;56.73
7966;BME280;4028;43.272;26.932;2023-02-27T10:30:25;99234.19;;;19.00;56.70
7966;BME280;4028;43.272;26.932;2023-02-27T10:32:56;99242.41;;;18.70;57.71
7966;BME280;4028;43.272;26.932;2023-02-27T10:37:59;99236.22;;;18.70;58.25
7966;BME280;4028;43.272;26.932;2023-02-27T10:40:28;99241.28;;;18.86;56.26
7966;BME280;4028;43.272;26.932;2023-02-27T10:42:55;99237.69;;;18.30;59.63
7966;BME280;4028;43.272;26.932;2023-02-27T10:45:21;99243.59;;;18.47;58.65
7966;BME280;4028;43.272;26.932;2023-02-27T10:47:47;99239.28;;;18.24;59.59
7966;BME280;4028;43.272;26.932;2023-02-27T10:50:43;99247.28;;;17.37;64.25
7966;BME280;4028;43.272;26.932;2023-02-27T10:53:21;99242.00;;;17.44;64.89
7966;BME280;4028;43.272;26.932;2023-02-27T10:56:00;99230.28;;;17.30;64.91
7966;BME280;4028;43.272;26.932;2023-02-27T10:58:29;99236.47;;;17.75;65.39
7966;BME280;4028;43.272;26.932;2023-02-27T11:00:59;99238.03;;;18.27;61.02
7966;BME280;4028;43.272;26.932;2023-02-27T11:03:33;99229.88;;;17.92;61.75
7966;BME280;4028;43.272;26.932;2023-02-27T11:06:11;99235.44;;;17.61;62.15
7966;BME280;4028;43.272;26.932;2023-02-27T11:08:37;99229.38;;;18.03;62.17
7966;BME280;4028;43.272;26.932;2023-02-27T11:11:07;99232.75;;;18.55;59.63
7966;BME280;4028;43.272;26.932;2023-02-27T11:13:39;99230.66;;;18.72;57.40
7966;BME280;4028;43.272;26.932;2023-02-27T11:16:12;99230.44;;;18.73;57.97
7966;BME280;4028;43.272;26.932;2023-02-27T11:18:40;99235.75;;;19.22;56.13
7966;BME280;4028;43.272;26.932;2023-02-27T11:23:36;99238.72;;;19.76;53.20
7966;BME280;4028;43.272;26.932;2023-02-27T11:26:10;99236.00;;;19.69;51.73
7966;BME280;4028;43.272;26.932;2023-02-27T11:28:39;99240.25;;;19.15;53.64
7966;BME280;4028;43.272;26.932;2023-02-27T11:31:21;99244.50;;;19.03;53.95
7966;BME280;4028;43.272;26.932;2023-02-27T11:33:53;99246.34;;;18.75;55.01
7966;BME280;4028;43.272;26.932;2023-02-27T11:36:20;99260.84;;;18.59;55.24
7966;BME280;4028;43.272;26.932;2023-02-27T11:38:52;99257.50;;;18.35;55.83
7966;BME280;4028;43.272;26.932;2023-02-27T11:41:20;99260.25;;;18.21;56.60
7966;BME280;4028;43.272;26.932;2023-02-27T11:43:54;99260.53;;;18.11;56.81
7966;BME280;4028;43.272;26.932;2023-02-27T11:46:23;99260.38;;;17.76;58.36
7966;BME280;4028;43.272;26.932;2023-02-27T11:48:52;99254.44;;;17.66;59.51
7966;BME280;4028;43.272;26.932;2023-02-27T11:51:36;99265.25;;;17.58;59.85
7966;BME280;4028;43.272;26.932;2023-02-27T11:54:17;99258.69;;;17.60;59.97
7966;BME280;4028;43.272;26.932;2023-02-27T11:57:00;99260.81;;;17.50;59.86
7966;BME280;4028;43.272;26.932;2023-02-27T11:59:38;99266.25;;;17.57;60.84
7966;BME280;4028;43.272;26.932;2023-02-27T12:03:12;99268.66;;;17.22;62.44
7966;BME280;4028;43.272;26.932;2023-02-27T12:08:01;99280.09;;;17.75;60.55
7966;BME280;4028;43.272;26.932;2023-02-27T12:10:37;99273.28;;;17.73;60.28
7966;BME280;4028;43.272;26.932;2023-02-27T12:13:21;99264.69;;;17.92;59.01
7966;BME280;4028;43.272;26.932;2023-02-27T12:16:16;99265.59;;;17.84;58.54
7966;BME280;4028;43.272;26.932;2023-02-27T12:18:54;99261.63;;;17.65;58.74
7966;BME280;4028;43.272;26.932;2023-02-27T12:21:30;99263.41;;;17.29;60.23
7966;BME280;4028;43.272;26.932;2023-02-27T12:24:03;99253.78;;;17.20;61.80
7966;BME280;4028;43.272;26.932;2023-02-27T12:26:44;99251.69;;;17.30;61.89
7966;BME280;4028;43.272;26.932;2023-02-27T12:32:42;99246.59;;;17.64;60.83
7966;BME280;4028;43.272;26.932;2023-02-27T12:35:29;99253.16;;;17.91;59.75
7966;BME280;4028;43.272;26.932;2023-02-27T12:37:57;99250.22;;;17.57;60.98
7966;BME280;4028;43.272;26.932;2023-02-27T12:40:36;99262.03;;;17.48;61.67
7966;BME280;4028;43.272;26.932;2023-02-27T12:45:53;99258.25;;;17.27;62.67
7966;BME280;4028;43.272;26.932;2023-02-27T12:54:22;99267.44;;;17.84;60.35
7966;BME280;4028;43.272;26.932;2023-02-27T13:05:17;99262.84;;;17.33;62.33
7966;BME280;4028;43.272;26.932;2023-02-27T13:08:08;99268.84;;;17.06;63.92
7966;BME280;4028;43.272;26.932;2023-02-27T13:11:03;99272.63;;;17.11;64.45
7966;BME280;4028;43.272;26.932;2023-02-27T13:13:42;99271.63;;;17.27;63.81
7966;BME280;4028;43.272;26.932;2023-02-27T13:16:20;99270.50;;;17.36;63.42
7966;BME280;4028;43.272;26.932;2023-02-27T13:18:55;99268.75;;;17.29;64.57
7966;BME280;4028;43.272;26.932;2023-02-27T13:26:30;99264.44;;;17.42;63.18
7966;BME280;4028;43.272;26.932;2023-02-27T13:28:59;99271.34;;;17.52;62.17
7966;BME280;4028;43.272;26.932;2023-02-27T13:31:33;99266.06;;;17.29;62.97
7966;BME280;4028;43.272;26.932;2023-02-27T13:34:15;99267.28;;;17.26;63.74
7966;BME280;4028;43.272;26.932;2023-02-27T13:37:03;99267.00;;;17.21;64.48
7966;BME280;4028;43.272;26.932;2023-02-27T13:44:54;99272.91;;;17.17;63.18
7966;BME280;4028;43.272;26.932;2023-02-27T13:49:57;99274.28;;;17.12;63.42
7966;BME280;4028;43.272;26.932;2023-02-27T13:52:41;99280.41;;;16.98;64.68
7966;BME280;4028;43.272;26.932;2023-02-27T13:55:26;99281.66;;;16.73;65.53
7966;BME280;4028;43.272;26.932;2023-02-27T13:57:57;99277.19;;;16.42;67.08
7966;BME280;4028;43.272;26.932;2023-02-27T14:00:29;99284.03;;;16.45;66.82
7966;BME280;4028;43.272;26.932;2023-02-27T14:02:57;99290.38;;;16.44;66.72
7966;BME280;4028;43.272;26.932;2023-02-27T14:05:38;99293.88;;;16.44;67.00
7966;BME280;4028;43.272;26.932;2023-02-27T14:10:36;99314.91;;;16.16;68.63
7966;BME280;4028;43.272;26.932;2023-02-27T14:13:03;99322.56;;;16.19;69.13
7966;BME280;4028;43.272;26.932;2023-02-27T14:17:55;99339.44;;;16.11;68.78
7966;BME280;4028;43.272;26.932;2023-02-27T14:23:17;99340.88;;;15.91;71.44
7966;BME280;4028;43.272;26.932;2023-02-27T14:25:50;99355.03;;;15.92;70.16
7966;BME280;4028;43.272;26.932;2023-02-27T14:28:48;99363.81;;;15.69;71.55
7966;BME280;4028;43.272;26.932;2023-02-27T14:31:25;99362.28;;;15.83;70.38
7966;BME280;4028;43.272;26.932;2023-02-27T14:33:53;99365.25;;;15.88;69.46
7966;BME280;4028;43.272;26.932;2023-02-27T14:36:23;99363.22;;;15.90;69.71
7966;BME280;4028;43.272;26.932;2023-02-27T14:38:53;99361.25;;;15.84;69.66
7966;BME280;4028;43.272;26.932;2023-02-27T14:43:55;99374.47;;;15.69;69.95
7966;BME280;4028;43.272;26.932;2023-02-27T14:46:36;99384.47;;;15.75;70.83
7966;BME280;4028;43.272;26.932;2023-02-27T14:49:05;99385.78;;;15.79;70.28
7966;BME280;4028;43.272;26.932;2023-02-27T14:51:33;99381.47;;;15.54;72.31
7966;BME280;4028;43.272;26.932;2023-02-27T14:54:21;99376.66;;;15.57;71.77
7966;BME280;4028;43.272;26.932;2023-02-27T14:57:02;99378.00;;;15.45;73.09
7966;BME280;4028;43.272;26.932;2023-02-27T14:59:44;99383.31;;;15.45;72.43
7966;BME280;4028;43.272;26.932;2023-02-27T15:02:21;99384.50;;;15.43;72.21
7966;BME280;4028;43.272;26.932;2023-02-27T15:05:10;99393.34;;;15.27;73.27
7966;BME280;4028;43.272;26.932;2023-02-27T15:07:38;99381.03;;;15.18;74.38
7966;BME280;4028;43.272;26.932;2023-02-27T15:10:06;99379.19;;;15.02;74.93
7966;BME280;4028;43.272;26.932;2023-02-27T15:12:36;99374.88;;;15.01;75.48
7966;BME280;4028;43.272;26.932;2023-02-27T15:15:03;99371.38;;;15.00;76.27
7966;BME280;4028;43.272;26.932;2023-02-27T15:17:38;99361.38;;;14.94;77.07
7966;BME280;4028;43.272;26.932;2023-02-27T15:22:53;99351.88;;;14.67;79.53
7966;BME280;4028;43.272;26.932;2023-02-27T15:25:30;99358.88;;;14.60;80.47
7966;BME280;4028;43.272;26.932;2023-02-27T15:28:00;99355.38;;;14.60;80.09
7966;BME280;4028;43.272;26.932;2023-02-27T15:30:27;99376.34;;;14.63;80.60
7966;BME280;4028;43.272;26.932;2023-02-27T15:32:52;99374.34;;;14.65;80.02
7966;BME280;4028;43.272;26.932;2023-02-27T15:35:22;99397.31;;;14.66;79.66
7966;BME280;4028;43.272;26.932;2023-02-27T15:37:55;99405.78;;;14.53;79.66
7966;BME280;4028;43.272;26.932;2023-02-27T15:40:26;99415.09;;;14.49;80.40
7966;BME280;4028;43.272;26.932;2023-02-27T15:42:53;99432.88;;;14.48;80.95
7966;BME280;4028;43.272;26.932;2023-02-27T15:45:22;99443.84;;;14.45;82.45
7966;BME280;4028;43.272;26.932;2023-02-27T15:47:48;99440.81;;;14.40;83.02